Main page
METAR-TAF:

METAR-TAF

Airports :

Ouagadougou, Burkina Faso

Ouagadougou Airport

latitude: 12-21N, longitude: 001-31W, elevation: 316 m

Current weather observation

The report was made 1 hour and 20 minutes ago, at 06:00 UTC
Wind 6 kt from the West/Southwest
Temperature 25°C
Humidity 89%
Pressure 1011 hPa
Visibility 10 km or more
no clouds below 1500 m and no cumulonimbus

METAR: DFFD 260600Z 24006KT CAVOK 25/23 Q1011 NOSIG

Time: 07:20 (07:20 UTC)

Forecast

The report was made 2 hours and 20 minutes ago, at 05:00 UTC
Forecast valid from 26 at 06 UTC to 27 at 12 UTC
Wind 8 kt from the West/Southwest
Visibility 10 km or more
Few clouds at a height of 2000 ft
Temporary
from 26 at 14 UTC to 26 at 24 UTC
Visibility: 4000 m
Scattered clouds at a height of 2000 ft
Few clouds at a height of 3500 ft, Cumulonimbus.
thunderstorm, rain

TAF: DFFD 260500Z 2606/2712 24008KT 9999 FEW020 TEMPO 2614/2624 4000 TSRA SCT020 FEW035CB

Weather observations and forecasts of more than 4000 airports (METAR and TAF reports).

The available stations are represented by yellow and red dots on the map.

Hover mouse over dot to see the name of the station.

Then click to see weather observations and forecasts.

To change the map : click on the green buttons with a black cross to zoom in, on the green button with a dash to zoom out, or on the green arrows for adjacent maps.


METAR-TAF: